createdAt,value
2023-04-03T00:02:50.924Z,5.37
2023-04-03T00:07:53.284Z,5.40
2023-04-03T00:12:55.249Z,5.56
2023-04-03T00:17:57.036Z,5.60
2023-04-03T00:22:59.039Z,5.50
2023-04-03T00:28:01.015Z,5.48
2023-04-03T00:33:03.159Z,5.54
2023-04-03T00:38:05.497Z,5.62
2023-04-03T00:43:22.342Z,5.70
2023-04-03T00:48:30.384Z,5.63
2023-04-03T00:53:38.189Z,5.52
2023-04-03T00:58:49.896Z,5.40
2023-04-03T01:03:52.245Z,5.45
2023-04-03T01:08:55.778Z,5.43
2023-04-03T01:13:57.729Z,5.36
2023-04-03T01:19:03.809Z,5.33
2023-04-03T01:24:32.639Z,5.14
2023-04-03T01:29:34.367Z,5.16
2023-04-03T01:34:36.134Z,5.23
2023-04-03T01:39:38.346Z,5.23
2023-04-03T01:44:40.589Z,5.24
2023-04-03T01:49:42.476Z,5.26
2023-04-03T01:54:44.586Z,5.28
2023-04-03T01:59:46.459Z,5.23
2023-04-03T02:04:48.307Z,5.22
2023-04-03T02:09:50.208Z,5.21
2023-04-03T02:14:52.187Z,5.18
2023-04-03T02:19:53.856Z,5.20
2023-04-03T02:24:55.620Z,5.28
2023-04-03T02:29:57.333Z,5.28
2023-04-03T02:34:59.176Z,5.28
2023-04-03T02:40:01.533Z,5.19
2023-04-03T02:45:04.873Z,5.25
2023-04-03T02:50:06.825Z,5.27
2023-04-03T02:55:09.044Z,5.23
2023-04-03T03:00:11.460Z,5.25
2023-04-03T03:05:13.558Z,5.18
2023-04-03T03:10:15.561Z,5.08
2023-04-03T03:15:18.247Z,5.03
2023-04-03T03:20:20.334Z,4.98
2023-04-03T03:25:22.085Z,5.02
2023-04-03T03:30:23.886Z,4.82
2023-04-03T03:35:25.673Z,4.77
2023-04-03T03:40:27.633Z,4.65
2023-04-03T03:45:29.608Z,4.56
2023-04-03T03:50:32.430Z,4.50
2023-04-03T03:55:34.315Z,4.56
2023-04-03T04:00:36.969Z,4.60
2023-04-03T04:05:39.384Z,4.63
2023-04-03T04:10:41.679Z,4.68
2023-04-03T04:15:44.615Z,4.70
2023-04-03T04:20:47.174Z,4.67
2023-04-03T04:25:51.557Z,4.65
2023-04-03T04:30:54.187Z,4.66
2023-04-03T04:35:57.995Z,4.58
2023-04-03T04:41:00.802Z,4.61
2023-04-03T04:46:11.404Z,4.54
2023-04-03T04:51:18.367Z,4.53
2023-04-03T04:56:20.532Z,4.51
2023-04-03T05:01:23.023Z,4.46
2023-04-03T05:06:37.294Z,4.43
2023-04-03T05:11:43.956Z,4.48
2023-04-03T05:16:50.231Z,4.48
2023-04-03T05:21:53.796Z,4.45
2023-04-03T05:26:55.899Z,4.48
2023-04-03T05:31:58.218Z,4.46
2023-04-03T05:37:01.436Z,4.43
2023-04-03T05:42:03.848Z,4.53
2023-04-03T05:47:06.191Z,4.57
2023-04-03T05:52:23.478Z,4.60
2023-04-03T05:57:26.304Z,4.66
2023-04-03T06:02:28.303Z,4.66
2023-04-03T06:07:30.297Z,4.68
2023-04-03T06:12:32.156Z,4.75
2023-04-03T06:17:34.030Z,4.71
2023-04-03T06:22:36.357Z,4.66
2023-04-03T06:27:38.234Z,4.84
2023-04-03T06:32:40.279Z,5.18
2023-04-03T06:37:41.942Z,5.37
2023-04-03T06:42:43.944Z,5.27
2023-04-03T06:47:47.809Z,5.15
2023-04-03T06:52:49.707Z,5.07
2023-04-03T06:57:51.713Z,5.06
2023-04-03T07:02:53.591Z,4.99
2023-04-03T07:07:55.441Z,5.11
2023-04-03T07:12:57.157Z,5.25
2023-04-03T07:17:59.309Z,5.31
2023-04-03T07:23:04.198Z,5.19
2023-04-03T07:28:06.170Z,5.19
2023-04-03T07:33:07.993Z,5.20
2023-04-03T07:38:10.840Z,5.24
2023-04-03T07:43:12.380Z,5.35
2023-04-03T07:48:14.425Z,5.34
2023-04-03T07:53:16.492Z,5.44
2023-04-03T07:58:19.325Z,5.59
2023-04-03T08:03:21.224Z,5.55
2023-04-03T08:08:23.922Z,5.70
2023-04-03T08:13:25.645Z,5.86
2023-04-03T08:18:27.776Z,5.76
2023-04-03T08:23:29.575Z,5.69
2023-04-03T08:28:31.293Z,5.51
2023-04-03T08:33:35.011Z,5.58
2023-04-03T08:38:38.247Z,5.77
2023-04-03T08:43:53.248Z,5.88
2023-04-03T08:48:55.890Z,6.01
2023-04-03T08:54:05.600Z,6.20
2023-04-03T08:59:25.771Z,6.31
2023-04-03T09:04:28.884Z,6.40
2023-04-03T09:09:39.553Z,6.53
2023-04-03T09:15:07.087Z,6.63
2023-04-03T09:20:18.977Z,6.62
2023-04-03T09:25:38.265Z,6.66
2023-04-03T09:30:40.233Z,6.65
2023-04-03T09:35:48.130Z,6.52
2023-04-03T09:41:18.064Z,6.52
2023-04-03T09:46:40.613Z,6.32
2023-04-03T09:51:42.424Z,6.22
2023-04-03T09:56:51.993Z,6.16
2023-04-03T10:02:04.277Z,6.09
2023-04-03T10:07:30.356Z,6.12
2023-04-03T10:12:32.081Z,6.18
2023-04-03T10:18:06.373Z,6.35
2023-04-03T10:23:41.496Z,6.40
2023-04-03T10:28:54.925Z,6.60
2023-04-03T10:34:40.678Z,6.91
2023-04-03T10:39:59.934Z,7.09
2023-04-03T10:45:25.578Z,7.14
2023-04-03T10:50:40.208Z,7.19
2023-04-03T10:56:00.221Z,7.26
2023-04-03T11:01:10.164Z,7.34
2023-04-03T11:06:15.779Z,7.46
2023-04-03T11:11:22.634Z,7.98
2023-04-03T11:16:29.542Z,8.50
2023-04-03T11:21:48.206Z,7.91
2023-04-03T11:26:52.420Z,7.37
2023-04-03T11:32:06.604Z,7.22
2023-04-03T11:37:18.617Z,7.15
2023-04-03T11:42:20.783Z,7.06
2023-04-03T11:48:04.859Z,7.00
2023-04-03T11:53:14.835Z,7.07
2023-04-03T11:58:21.234Z,7.20
2023-04-03T12:03:29.791Z,7.69
2023-04-03T12:08:34.716Z,8.29
2023-04-03T12:13:37.271Z,8.53
2023-04-03T12:18:54.686Z,8.79
2023-04-03T12:24:04.193Z,8.79
2023-04-03T12:29:37.857Z,9.02
2023-04-03T12:34:57.389Z,8.38
2023-04-03T12:40:29.178Z,8.03
2023-04-03T12:45:43.906Z,7.90
2023-04-03T12:50:48.437Z,8.64
2023-04-03T12:55:55.463Z,9.19
2023-04-03T13:01:10.880Z,9.52
2023-04-03T13:06:19.920Z,9.39
2023-04-03T13:11:23.430Z,9.40
2023-04-03T13:16:25.860Z,8.48
2023-04-03T13:21:30.526Z,8.65
2023-04-03T13:26:34.198Z,9.40
2023-04-03T13:31:38.027Z,9.55
2023-04-03T13:36:44.958Z,8.85
2023-04-03T13:41:49.638Z,8.64
2023-04-03T13:47:01.805Z,8.99
2023-04-03T13:52:24.374Z,9.58
2023-04-03T13:57:26.678Z,9.15
2023-04-03T14:02:34.302Z,8.46
2023-04-03T14:07:36.344Z,8.31
2023-04-03T14:12:41.300Z,8.35
2023-04-03T14:17:43.697Z,9.14
2023-04-03T14:22:45.653Z,9.84
2023-04-03T14:27:49.964Z,9.44
2023-04-03T14:32:52.895Z,8.93
2023-04-03T14:37:55.895Z,8.67
2023-04-03T14:42:58.361Z,9.15
2023-04-03T14:48:00.396Z,9.54
2023-04-03T14:53:02.535Z,9.55
2023-04-03T14:58:04.242Z,9.64
2023-04-03T15:03:06.193Z,9.49
2023-04-03T15:08:18.920Z,8.87
2023-04-03T15:13:21.446Z,8.47
2023-04-03T15:18:27.943Z,8.69
2023-04-03T15:23:30.962Z,9.14
2023-04-03T15:28:41.608Z,9.40
2023-04-03T15:33:43.415Z,9.60
2023-04-03T15:38:45.280Z,9.64
2023-04-03T15:43:47.008Z,10.00
2023-04-03T15:48:50.525Z,9.93
2023-04-03T15:53:52.214Z,9.73
2023-04-03T15:58:54.179Z,9.79
2023-04-03T16:03:55.936Z,10.05
2023-04-03T16:08:58.917Z,10.03
2023-04-03T16:14:00.722Z,9.92
2023-04-03T16:19:02.435Z,9.35
2023-04-03T16:24:04.414Z,8.99
2023-04-03T16:29:06.180Z,8.83
2023-04-03T16:34:07.865Z,8.99
2023-04-03T16:39:10.870Z,8.97
2023-04-03T16:44:12.660Z,8.74
2023-04-03T16:49:14.533Z,8.36
2023-04-03T16:54:16.241Z,8.00
2023-04-03T16:59:18.207Z,7.78
2023-04-03T17:04:20.488Z,7.62
2023-04-03T17:09:23.643Z,7.43
2023-04-03T17:14:25.400Z,7.19
2023-04-03T17:19:28.798Z,6.95
2023-04-03T17:24:30.749Z,6.77
2023-04-03T17:29:32.427Z,6.66
2023-04-03T17:34:35.971Z,6.55
2023-04-03T17:39:37.649Z,6.43
2023-04-03T17:44:39.755Z,6.28
2023-04-03T17:49:41.594Z,6.13
2023-04-03T17:54:43.377Z,6.02
2023-04-03T17:59:45.416Z,6.01
2023-04-03T18:04:47.136Z,5.89
2023-04-03T18:09:50.878Z,5.72
2023-04-03T18:14:52.973Z,5.55
2023-04-03T18:19:55.166Z,5.40
2023-04-03T18:24:58.203Z,5.27
2023-04-03T18:30:02.972Z,5.18
2023-04-03T18:35:05.821Z,5.06
2023-04-03T18:40:07.871Z,4.94
2023-04-03T18:45:11.904Z,4.86
2023-04-03T18:50:13.939Z,4.78
2023-04-03T18:55:18.853Z,4.73
2023-04-03T19:00:20.704Z,4.66
2023-04-03T19:05:23.903Z,4.59
2023-04-03T19:10:27.341Z,4.52
2023-04-03T19:15:29.365Z,4.38
2023-04-03T19:20:34.983Z,4.32
2023-04-03T19:25:38.124Z,4.20
2023-04-03T19:30:40.924Z,4.12
2023-04-03T19:35:43.002Z,4.02
2023-04-03T19:40:45.657Z,3.93
2023-04-03T19:45:48.160Z,3.86
2023-04-03T19:50:50.364Z,3.86
2023-04-03T19:55:52.542Z,3.84
2023-04-03T20:00:55.370Z,3.84
2023-04-03T20:05:58.267Z,3.83
2023-04-03T20:11:00.693Z,3.84
2023-04-03T20:16:04.731Z,3.78
2023-04-03T20:21:07.755Z,3.71
2023-04-03T20:26:13.182Z,3.63
2023-04-03T20:31:18.488Z,3.61
2023-04-03T20:36:21.781Z,3.51
2023-04-03T20:41:23.801Z,3.45
2023-04-03T20:46:38.289Z,3.50
2023-04-03T20:51:44.321Z,3.49
2023-04-03T20:56:49.559Z,3.45
2023-04-03T21:01:51.336Z,3.29
2023-04-03T21:07:31.025Z,3.23
2023-04-03T21:13:10.139Z,3.08
2023-04-03T21:18:12.399Z,3.02
2023-04-03T21:23:14.463Z,2.93
2023-04-03T21:28:18.434Z,2.87
2023-04-03T21:33:20.472Z,2.83
2023-04-03T21:38:22.237Z,2.79
2023-04-03T21:43:24.815Z,2.71
2023-04-03T21:48:30.919Z,2.71
2023-04-03T21:53:36.054Z,2.68
2023-04-03T21:58:37.850Z,2.59
2023-04-03T22:03:41.416Z,2.24
2023-04-03T22:08:43.786Z,2.10
2023-04-03T22:13:45.751Z,2.15
2023-04-03T22:18:47.444Z,2.17
2023-04-03T22:23:49.278Z,2.23
2023-04-03T22:28:51.405Z,2.30
2023-04-03T22:33:53.118Z,2.37
2023-04-03T22:38:55.178Z,2.33
2023-04-03T22:43:57.180Z,2.33
2023-04-03T22:48:58.889Z,2.28
2023-04-03T22:54:00.576Z,2.16
2023-04-03T22:59:02.361Z,2.18
2023-04-03T23:04:04.373Z,2.20
2023-04-03T23:09:06.109Z,2.22
2023-04-03T23:14:07.851Z,2.13
2023-04-03T23:19:09.686Z,2.08
2023-04-03T23:24:11.662Z,2.03
2023-04-03T23:29:13.521Z,1.97
2023-04-03T23:34:15.337Z,1.91
2023-04-03T23:39:19.808Z,1.83
2023-04-03T23:44:21.786Z,1.77
2023-04-03T23:49:23.642Z,1.79
2023-04-03T23:54:25.453Z,1.84
2023-04-03T23:59:28.063Z,1.82
